Time;durP1;ratioP1;P1;durP2;ratioP2;P2;SDS_P1;SDS_P2;PMS_P1;PMS_P2;Temp;Humidity;BMP_temperature;BMP_pressure;BME280_temperature;BME280_humidity;BME280_pressure;Samples;Min_cycle;Max_cycle;Signal;HPM_P1;HPM_P2
2023/11/13 00:00:47;;;;;;;10.75;8.68;;;6.60;99.90;;;;;;5079971;28;20133;-43
2023/11/13 00:03:12;;;;;;;13.10;9.02;;;6.60;99.90;;;;;;5080956;28;20127;-43
2023/11/13 00:05:38;;;;;;;10.73;8.50;;;6.60;99.90;;;;;;5081751;28;20250;-43
2023/11/13 00:08:06;;;;;;;9.40;8.30;;;6.60;99.90;;;;;;5080198;28;20032;-43
2023/11/13 00:10:33;;;;;;;11.93;8.32;;;6.50;99.90;;;;;;5080697;28;20412;-44
2023/11/13 00:12:59;;;;;;;11.05;8.93;;;6.50;99.90;;;;;;5081002;28;20035;-44
2023/11/13 00:15:28;;;;;;;10.80;8.40;;;6.50;99.90;;;;;;5080716;28;20889;-42
2023/11/13 00:18:01;;;;;;;12.43;9.20;;;6.50;99.90;;;;;;5080721;28;20036;-42
2023/11/13 00:20:27;;;;;;;11.82;9.05;;;6.50;99.90;;;;;;5080353;28;20020;-42
2023/11/13 00:22:53;;;;;;;11.73;8.98;;;6.40;99.90;;;;;;5079885;28;20062;-42
2023/11/13 00:25:18;;;;;;;11.27;8.90;;;6.40;99.90;;;;;;5080579;28;20012;-42
2023/11/13 00:27:45;;;;;;;12.32;8.95;;;6.40;99.90;;;;;;5080587;28;20052;-42
2023/11/13 00:30:11;;;;;;;10.65;8.32;;;6.40;99.90;;;;;;5079333;28;20016;-44
2023/11/13 00:32:37;;;;;;;12.30;9.32;;;6.40;99.90;;;;;;5080431;28;20032;-43
2023/11/13 00:35:02;;;;;;;10.65;8.50;;;6.40;99.90;;;;;;5079694;28;20044;-43
2023/11/13 00:37:28;;;;;;;10.77;8.68;;;6.40;99.90;;;;;;5080113;28;20140;-43
2023/11/13 00:39:53;;;;;;;10.65;8.30;;;6.40;99.90;;;;;;5080254;28;20102;-43
2023/11/13 00:42:20;;;;;;;12.18;8.80;;;6.40;99.90;;;;;;5080166;28;20123;-43
2023/11/13 00:44:45;;;;;;;11.73;9.35;;;6.40;99.90;;;;;;5080242;28;20016;-45
2023/11/13 00:47:11;;;;;;;12.48;9.43;;;6.40;99.90;;;;;;5079650;28;20081;-42
2023/11/13 00:49:38;;;;;;;12.20;9.80;;;6.40;99.90;;;;;;5079362;28;20040;-43
2023/11/13 00:52:03;;;;;;;15.15;10.45;;;6.40;99.90;;;;;;5080289;28;20024;-42
2023/11/13 00:54:29;;;;;;;13.63;9.52;;;6.40;99.90;;;;;;5081983;28;20035;-43
2023/11/13 00:56:55;;;;;;;15.55;10.52;;;6.30;99.90;;;;;;5083608;28;20027;-43
2023/11/13 00:59:20;;;;;;;13.10;9.68;;;6.40;99.90;;;;;;5084452;28;20016;-42
2023/11/13 01:01:46;;;;;;;15.70;9.00;;;6.40;99.90;;;;;;5084345;28;20024;-43
2023/11/13 01:04:11;;;;;;;15.63;8.95;;;6.40;99.90;;;;;;5083639;28;20024;-42
2023/11/13 01:06:37;;;;;;;12.85;8.80;;;6.40;99.90;;;;;;5084602;28;20024;-42
2023/11/13 01:09:03;;;;;;;10.50;8.43;;;6.40;99.90;;;;;;5083985;28;20376;-42
2023/11/13 01:11:29;;;;;;;9.30;7.90;;;6.30;99.90;;;;;;5082984;28;20101;-43
2023/11/13 01:13:54;;;;;;;10.70;8.02;;;6.40;99.90;;;;;;5084267;28;20031;-43
2023/11/13 01:16:20;;;;;;;11.90;8.27;;;6.30;99.90;;;;;;5083352;28;20508;-42
2023/11/13 01:18:53;;;;;;;10.93;8.63;;;6.30;99.90;;;;;;5083738;28;20079;-43
2023/11/13 01:21:19;;;;;;;;;;;6.30;99.90;;;;;;5083619;28;20066;-43
2023/11/13 01:23:45;;;;;;;11.65;8.02;;;6.30;99.90;;;;;;5083587;28;19916;-43
2023/11/13 01:26:10;;;;;;;12.15;9.00;;;6.30;99.90;;;;;;5083214;28;20101;-43
2023/11/13 01:28:36;;;;;;;11.63;9.30;;;6.20;99.90;;;;;;5084182;28;20032;-43
2023/11/13 01:31:02;;;;;;;11.68;9.25;;;6.30;99.90;;;;;;5083734;28;20020;-42
2023/11/13 01:33:27;;;;;;;11.45;8.55;;;6.20;99.90;;;;;;5083719;28;20028;-43
2023/11/13 01:35:53;;;;;;;10.88;8.75;;;6.20;99.90;;;;;;5083977;28;20027;-43
2023/11/13 01:38:18;;;;;;;13.10;9.05;;;6.20;99.90;;;;;;5083624;28;20071;-44
2023/11/13 01:40:44;;;;;;;10.73;8.55;;;6.20;99.90;;;;;;5083115;28;20027;-43
2023/11/13 01:43:22;;;;;;;10.50;8.65;;;6.20;99.90;;;;;;5083787;28;20036;-43
2023/11/13 01:45:54;;;;;;;10.75;8.73;;;6.20;99.90;;;;;;5083469;28;20044;-44
2023/11/13 01:48:21;;;;;;;12.38;9.02;;;6.20;99.90;;;;;;5075260;28;20082;-44
2023/11/13 01:50:48;;;;;;;10.88;9.00;;;6.20;99.90;;;;;;5065238;28;20040;-44
2023/11/13 01:53:17;;;;;;;11.13;8.45;;;6.20;99.90;;;;;;5073852;28;20099;-43
2023/11/13 01:55:43;;;;;;;10.43;8.98;;;6.20;99.90;;;;;;5064018;28;20078;-42
2023/11/13 01:58:10;;;;;;;12.20;9.15;;;6.20;99.90;;;;;;5069623;28;20591;-43
2023/11/13 02:00:36;;;;;;;14.32;9.95;;;6.20;99.90;;;;;;5082828;28;20471;-43
2023/11/13 02:03:05;;;;;;;11.57;8.90;;;6.30;99.90;;;;;;5070037;28;20036;-43
2023/11/13 02:05:31;;;;;;;13.80;9.10;;;6.30;99.90;;;;;;5083167;28;20471;-44
2023/11/13 02:07:57;;;;;;;10.93;8.45;;;6.30;99.90;;;;;;5070186;28;20694;-44
2023/11/13 02:10:23;;;;;;;11.93;8.70;;;6.30;99.90;;;;;;5082723;28;20028;-43
2023/11/13 02:12:49;;;;;;;10.82;8.80;;;6.30;99.90;;;;;;5074204;28;20074;-43
2023/11/13 02:15:15;;;;;;;9.98;8.70;;;6.30;99.90;;;;;;5079483;28;20031;-43
2023/11/13 02:18:01;;;;;;;11.38;8.95;;;6.30;99.90;;;;;;5077428;28;20028;-43
2023/11/13 02:20:27;;;;;;;12.25;8.93;;;6.40;99.90;;;;;;5080968;28;20035;-44
2023/11/13 02:22:53;;;;;;;10.95;8.20;;;6.40;99.90;;;;;;5075074;28;20048;-46
2023/11/13 02:25:25;;;;;;;11.27;8.68;;;6.40;99.90;;;;;;5076780;28;20020;-44
2023/11/13 02:28:04;;;;;;;12.68;8.45;;;6.40;99.90;;;;;;5077058;28;20024;-43
2023/11/13 02:30:35;;;;;;;9.63;8.27;;;6.40;99.90;;;;;;5077365;28;20089;-43
2023/11/13 02:33:01;;;;;;;11.55;8.25;;;6.40;99.90;;;;;;5077124;28;20424;-43
2023/11/13 02:35:26;;;;;;;10.30;8.52;;;6.40;99.90;;;;;;5075436;28;20666;-43
2023/11/13 02:37:52;;;;;;;11.98;8.60;;;6.40;99.90;;;;;;5079770;28;20024;-43
2023/11/13 02:40:17;;;;;;;11.38;8.45;;;6.40;99.90;;;;;;5072469;28;20765;-43
2023/11/13 02:42:43;;;;;;;9.57;7.57;;;6.50;99.90;;;;;;5065204;28;20028;-43
2023/11/13 02:45:09;;;;;;;9.45;8.07;;;6.50;99.90;;;;;;5072964;28;20028;-43
2023/11/13 02:47:35;;;;;;;10.00;8.68;;;6.50;99.90;;;;;;5064271;28;20021;-43
2023/11/13 02:50:02;;;;;;;11.80;7.95;;;6.50;99.90;;;;;;5078077;28;20106;-43
2023/11/13 02:52:28;;;;;;;14.20;8.75;;;6.50;99.90;;;;;;5082319;28;20055;-43
2023/11/13 02:54:54;;;;;;;10.02;8.23;;;6.50;99.90;;;;;;5082072;28;21074;-44
2023/11/13 02:57:20;;;;;;;10.65;8.60;;;6.50;99.90;;;;;;5081887;28;20479;-43
2023/11/13 02:59:45;;;;;;;9.60;8.23;;;6.50;99.90;;;;;;5081718;28;20038;-43
2023/11/13 03:02:14;;;;;;;11.88;7.88;;;6.50;99.90;;;;;;5081910;28;20028;-43
2023/11/13 03:04:40;;;;;;;10.65;7.88;;;6.50;99.90;;;;;;5081876;28;20028;-43
2023/11/13 03:07:06;;;;;;;10.52;7.53;;;6.40;99.90;;;;;;5082254;28;20059;-43
2023/11/13 03:09:38;;;;;;;9.75;7.75;;;6.50;99.90;;;;;;5081757;28;20036;-43
2023/11/13 03:12:04;;;;;;;9.30;7.40;;;6.50;99.90;;;;;;5081490;28;20307;-43
2023/11/13 03:14:29;;;;;;;11.60;8.15;;;6.50;99.90;;;;;;5081285;28;20542;-43
2023/11/13 03:16:57;;;;;;;10.70;8.10;;;6.50;99.90;;;;;;5081311;28;20032;-43
2023/11/13 03:19:25;;;;;;;10.95;7.90;;;6.50;99.90;;;;;;5080811;28;20065;-43
2023/11/13 03:21:51;;;;;;;9.35;8.02;;;6.50;99.90;;;;;;5081679;28;20028;-43
2023/11/13 03:24:16;;;;;;;9.43;7.15;;;6.50;99.90;;;;;;5080445;28;20036;-42
2023/11/13 03:26:42;;;;;;;10.75;7.15;;;6.50;99.90;;;;;;5081459;28;20146;-42
2023/11/13 03:29:08;;;;;;;9.32;7.10;;;6.60;99.90;;;;;;5082283;28;20024;-43
2023/11/13 03:31:34;;;;;;;8.63;7.35;;;6.60;99.90;;;;;;5080950;28;20028;-43
2023/11/13 03:33:59;;;;;;;11.35;6.80;;;6.60;99.90;;;;;;5081563;28;20053;-43
2023/11/13 03:36:25;;;;;;;10.52;7.35;;;6.60;99.90;;;;;;5081577;28;20020;-43
2023/11/13 03:38:51;;;;;;;7.72;6.45;;;6.60;99.90;;;;;;5080935;28;20024;-43
2023/11/13 03:41:16;;;;;;;9.50;6.57;;;6.70;99.90;;;;;;5080590;28;20828;-43
2023/11/13 03:43:42;;;;;;;8.10;6.43;;;6.70;99.90;;;;;;5082142;28;20411;-43
2023/11/13 03:46:08;;;;;;;7.82;6.97;;;6.70;99.90;;;;;;5079461;28;20570;-44
2023/11/13 03:48:34;;;;;;;9.77;7.22;;;6.70;99.90;;;;;;5080539;28;20056;-43
2023/11/13 03:50:59;;;;;;;9.40;6.80;;;6.80;99.90;;;;;;5080980;28;20030;-42
2023/11/13 03:53:25;;;;;;;9.25;6.60;;;6.80;99.90;;;;;;5080409;28;20109;-42
2023/11/13 03:55:50;;;;;;;8.55;6.80;;;6.80;99.90;;;;;;5080914;28;20020;-42
2023/11/13 03:58:16;;;;;;;12.75;7.28;;;6.80;99.90;;;;;;5080793;28;20067;-42
2023/11/13 04:00:44;;;;;;;9.52;6.75;;;6.90;99.90;;;;;;5081112;28;20051;-42
2023/11/13 04:03:10;;;;;;;10.23;6.90;;;6.90;99.90;;;;;;5080908;28;20249;-42
2023/11/13 04:05:36;;;;;;;8.60;6.65;;;6.90;99.90;;;;;;5081220;28;20432;-42
2023/11/13 04:08:02;;;;;;;10.13;6.80;;;6.90;99.90;;;;;;5080351;28;20031;-42
2023/11/13 04:10:28;;;;;;;9.88;7.07;;;6.90;99.90;;;;;;5081055;28;20024;-42
2023/11/13 04:12:54;;;;;;;10.30;6.88;;;6.90;99.90;;;;;;5081813;28;20043;-42
2023/11/13 04:15:19;;;;;;;10.35;6.78;;;7.00;99.90;;;;;;5080542;28;20031;-42
2023/11/13 04:17:45;;;;;;;8.77;7.05;;;7.00;99.90;;;;;;5080919;28;20027;-42
2023/11/13 04:20:14;;;;;;;7.65;6.85;;;7.00;99.90;;;;;;5081391;28;20115;-42
2023/11/13 04:22:41;;;;;;;8.93;6.82;;;7.00;99.90;;;;;;5080478;28;20724;-42
2023/11/13 04:25:11;;;;;;;9.77;6.78;;;7.00;99.90;;;;;;5080810;28;20028;-42
2023/11/13 04:27:40;;;;;;;9.07;6.45;;;7.10;99.90;;;;;;5080512;28;20578;-43
2023/11/13 04:30:07;;;;;;;7.30;6.50;;;7.00;99.90;;;;;;5060804;28;20392;-42
2023/11/13 04:32:32;;;;;;;7.25;6.03;;;7.00;99.90;;;;;;5074866;28;20028;-43
2023/11/13 04:34:58;;;;;;;8.55;6.10;;;7.10;99.90;;;;;;5080342;28;20032;-43
2023/11/13 04:37:24;;;;;;;8.07;6.40;;;7.10;99.90;;;;;;5080555;28;20026;-43
2023/11/13 04:39:49;;;;;;;8.40;6.45;;;7.10;99.90;;;;;;5081613;28;20031;-43
2023/11/13 04:42:15;;;;;;;7.35;6.53;;;7.10;99.90;;;;;;5079555;28;20032;-43
2023/11/13 04:44:40;;;;;;;10.70;6.80;;;7.10;99.90;;;;;;5081442;28;20134;-43
2023/11/13 04:47:07;;;;;;;8.57;6.50;;;7.10;99.90;;;;;;5080812;28;20020;-43
2023/11/13 04:49:35;;;;;;;7.93;6.35;;;7.10;99.90;;;;;;5069568;28;20079;-43
2023/11/13 04:52:01;;;;;;;9.20;6.78;;;7.10;99.90;;;;;;5060923;28;20842;-43
2023/11/13 04:54:26;;;;;;;9.23;7.32;;;7.10;99.90;;;;;;5069796;28;20132;-42
2023/11/13 04:56:52;;;;;;;10.40;7.45;;;7.20;99.90;;;;;;5061139;28;20071;-43
2023/11/13 04:59:18;;;;;;;9.60;6.75;;;7.10;99.90;;;;;;5071291;28;20024;-43
2023/11/13 05:01:43;;;;;;;8.05;6.97;;;7.20;99.90;;;;;;5060173;28;20029;-43
2023/11/13 05:04:12;;;;;;;7.57;6.30;;;7.20;99.90;;;;;;5072039;28;20046;-43
2023/11/13 05:06:38;;;;;;;7.47;6.45;;;7.20;99.90;;;;;;5061237;28;20020;-43
2023/11/13 05:09:04;;;;;;;7.15;5.75;;;7.20;99.90;;;;;;5072845;28;20042;-43
2023/11/13 05:11:32;;;;;;;8.18;6.30;;;7.20;99.90;;;;;;5060252;28;20020;-43
2023/11/13 05:13:58;;;;;;;9.90;5.82;;;7.20;99.90;;;;;;5070259;28;20020;-42
2023/11/13 05:16:25;;;;;;;7.63;6.50;;;7.20;99.90;;;;;;5061646;28;20016;-43
2023/11/13 05:18:52;;;;;;;8.13;6.30;;;7.20;99.90;;;;;;5067894;28;20047;-43
2023/11/13 05:21:19;;;;;;;6.80;5.93;;;7.30;99.90;;;;;;5064275;28;20500;-42
2023/11/13 05:23:46;;;;;;;6.82;5.88;;;7.30;99.90;;;;;;5065040;28;20063;-43
2023/11/13 05:26:11;;;;;;;6.88;5.53;;;7.30;99.90;;;;;;5066722;28;20782;-42
2023/11/13 05:28:37;;;;;;;6.43;5.35;;;7.30;99.90;;;;;;5063035;28;20032;-42
2023/11/13 05:31:02;;;;;;;6.82;5.55;;;7.30;99.90;;;;;;5068859;28;20024;-43
2023/11/13 05:33:28;;;;;;;6.72;5.60;;;7.30;99.90;;;;;;5061405;28;20028;-43
2023/11/13 05:35:54;;;;;;;8.32;6.80;;;7.30;99.90;;;;;;5071166;28;20039;-43
2023/11/13 05:38:19;;;;;;;6.32;5.63;;;7.30;99.90;;;;;;5060351;28;20033;-43
2023/11/13 05:40:45;;;;;;;6.45;5.85;;;7.30;99.90;;;;;;5073306;28;20032;-42
2023/11/13 05:43:11;;;;;;;8.02;6.35;;;7.30;99.90;;;;;;5063428;28;20038;-43
2023/11/13 05:45:37;;;;;;;7.47;6.50;;;7.40;99.90;;;;;;5075305;28;20025;-43
2023/11/13 05:48:03;;;;;;;8.02;6.68;;;7.40;99.90;;;;;;5069506;28;20036;-43
2023/11/13 05:50:29;;;;;;;7.07;6.10;;;7.40;99.90;;;;;;5082456;28;20078;-43
2023/11/13 05:52:55;;;;;;;7.45;6.60;;;7.40;99.90;;;;;;5082506;28;20115;-43
2023/11/13 05:55:22;;;;;;;7.00;6.28;;;7.40;99.90;;;;;;5082865;28;20028;-42
2023/11/13 05:57:48;;;;;;;7.57;6.45;;;7.40;99.90;;;;;;5083544;28;20361;-43
2023/11/13 06:00:15;;;;;;;7.55;6.63;;;7.40;99.90;;;;;;5081957;28;20049;-43
2023/11/13 06:02:40;;;;;;;7.40;6.20;;;7.40;99.90;;;;;;5082909;28;20495;-43
2023/11/13 06:05:06;;;;;;;7.95;6.57;;;7.40;99.90;;;;;;5082769;28;20024;-43
2023/11/13 06:07:32;;;;;;;8.60;7.00;;;7.50;99.90;;;;;;5082435;28;20016;-43
2023/11/13 06:09:57;;;;;;;7.97;6.68;;;7.50;99.90;;;;;;5083258;28;20028;-43
2023/11/13 06:12:23;;;;;;;9.95;6.85;;;7.50;99.90;;;;;;5083395;28;20034;-42
2023/11/13 06:14:49;;;;;;;7.65;6.70;;;7.50;99.90;;;;;;5083299;28;20106;-43
2023/11/13 06:17:16;;;;;;;7.53;6.03;;;7.50;99.90;;;;;;5082802;28;20031;-43
2023/11/13 06:19:41;;;;;;;8.35;6.47;;;7.50;99.90;;;;;;5082594;28;20028;-42
2023/11/13 06:22:11;;;;;;;7.43;5.90;;;7.50;99.90;;;;;;5082186;28;20515;-42
2023/11/13 06:24:38;;;;;;;6.78;5.82;;;7.50;99.90;;;;;;5083037;28;20046;-45
2023/11/13 06:27:05;;;;;;;8.63;6.72;;;7.50;99.90;;;;;;5082174;28;20086;-42
2023/11/13 06:29:31;;;;;;;7.28;6.45;;;7.50;99.90;;;;;;5082881;28;20561;-42
2023/11/13 06:31:56;;;;;;;8.18;6.78;;;7.50;99.90;;;;;;5083124;28;20024;-43
2023/11/13 06:34:22;;;;;;;9.40;6.90;;;7.50;99.90;;;;;;5082330;28;20035;-43
2023/11/13 06:36:47;;;;;;;8.05;6.00;;;7.60;99.90;;;;;;5082498;28;20114;-43
2023/11/13 06:39:14;;;;;;;7.35;6.38;;;7.60;99.90;;;;;;5081979;28;20332;-47
2023/11/13 06:41:39;;;;;;;7.88;5.93;;;7.60;99.90;;;;;;5081508;28;20102;-43
2023/11/13 06:44:07;;;;;;;10.40;6.80;;;7.60;99.90;;;;;;5082372;28;20138;-43
2023/11/13 06:46:34;;;;;;;7.20;6.50;;;7.60;99.90;;;;;;5082003;28;20075;-43
2023/11/13 06:49:00;;;;;;;8.38;6.95;;;7.60;99.90;;;;;;5067830;28;20088;-42
2023/11/13 06:51:25;;;;;;;8.70;6.95;;;7.70;99.90;;;;;;5064853;28;20055;-43
2023/11/13 06:53:52;;;;;;;8.25;6.45;;;7.60;99.90;;;;;;5071278;28;20463;-45
2023/11/13 06:56:18;;;;;;;7.82;6.22;;;7.70;99.90;;;;;;5062264;28;20032;-42
2023/11/13 06:58:44;;;;;;;8.27;6.72;;;7.70;99.90;;;;;;5073102;28;20593;-43
2023/11/13 07:01:10;;;;;;;9.05;6.90;;;7.70;99.90;;;;;;5061295;28;20040;-43
2023/11/13 07:03:38;;;;;;;7.53;6.15;;;7.80;99.90;;;;;;5072068;28;20040;-43
2023/11/13 07:06:07;;;;;;;7.95;6.72;;;7.80;99.90;;;;;;5060018;28;20032;-42
2023/11/13 07:08:33;;;;;;;7.68;6.60;;;7.80;99.90;;;;;;5068157;28;20491;-42
2023/11/13 07:10:59;;;;;;;8.32;6.95;;;7.80;99.90;;;;;;5080015;28;20765;-42
2023/11/13 07:13:25;;;;;;;10.07;7.03;;;7.80;99.90;;;;;;5067618;28;20028;-43
2023/11/13 07:15:51;;;;;;;8.40;7.07;;;7.90;99.90;;;;;;5081634;28;20039;-43
2023/11/13 07:18:16;;;;;;;7.70;6.68;;;7.90;99.90;;;;;;5068198;28;20037;-43
2023/11/13 07:20:42;;;;;;;11.35;6.55;;;7.90;99.90;;;;;;5080886;28;20028;-43
2023/11/13 07:23:09;;;;;;;12.45;7.10;;;7.90;99.90;;;;;;5071240;28;20033;-43
2023/11/13 07:25:35;;;;;;;9.73;7.28;;;7.90;99.90;;;;;;5077990;28;20032;-43
2023/11/13 07:28:00;;;;;;;8.60;7.07;;;7.90;99.90;;;;;;5073988;28;20023;-43
2023/11/13 07:30:27;;;;;;;8.90;7.32;;;8.00;99.90;;;;;;5074180;28;20057;-43
2023/11/13 07:32:53;;;;;;;9.95;7.60;;;8.00;99.90;;;;;;5077285;28;20098;-42
2023/11/13 07:35:19;;;;;;;9.73;7.10;;;8.00;99.90;;;;;;5073135;28;20024;-42
2023/11/13 07:37:45;;;;;;;9.27;7.72;;;8.00;99.90;;;;;;5079452;28;20023;-42
2023/11/13 07:40:13;;;;;;;8.35;6.95;;;8.00;99.90;;;;;;5069238;28;20032;-43
2023/11/13 07:42:40;;;;;;;8.05;7.15;;;8.10;99.90;;;;;;5079391;28;20078;-42
2023/11/13 07:45:08;;;;;;;9.38;6.93;;;8.10;99.90;;;;;;5069019;28;20280;-42
2023/11/13 07:47:34;;;;;;;8.50;7.32;;;8.10;99.90;;;;;;5079922;28;20047;-42
2023/11/13 07:50:00;;;;;;;8.52;6.88;;;8.10;99.90;;;;;;5069204;28;20024;-42
2023/11/13 07:52:27;;;;;;;10.85;8.10;;;8.20;99.90;;;;;;5080480;28;20673;-42
2023/11/13 07:54:59;;;;;;;9.07;7.13;;;8.20;99.90;;;;;;5067952;28;20056;-42
2023/11/13 07:57:25;;;;;;;;;;;8.20;99.90;;;;;;5080380;28;20559;-43
2023/11/13 07:59:51;;;;;;;7.70;6.53;;;8.20;99.90;;;;;;5067904;28;20546;-44
2023/11/13 08:02:19;;;;;;;9.55;7.00;;;8.20;99.90;;;;;;5080230;28;20514;-43
2023/11/13 08:04:46;;;;;;;8.93;7.00;;;8.30;99.90;;;;;;5069726;28;20037;-44
2023/11/13 08:07:12;;;;;;;9.88;7.47;;;8.30;99.90;;;;;;5078899;28;20028;-44
2023/11/13 08:09:37;;;;;;;9.50;7.50;;;8.30;99.90;;;;;;5064122;28;20024;-44
2023/11/13 08:12:04;;;;;;;9.13;7.50;;;8.30;99.90;;;;;;5073070;28;20034;-44
2023/11/13 08:14:30;;;;;;;9.38;7.65;;;8.40;99.90;;;;;;5074001;28;20020;-44
2023/11/13 08:16:58;;;;;;;9.30;7.65;;;8.40;99.90;;;;;;5074871;28;20086;-44
2023/11/13 08:19:24;;;;;;;9.85;7.22;;;8.40;99.90;;;;;;5075577;28;20525;-44
2023/11/13 08:21:49;;;;;;;10.25;7.30;;;8.50;99.90;;;;;;5072161;28;20044;-42
2023/11/13 08:24:19;;;;;;;8.80;6.95;;;8.50;99.90;;;;;;5078993;28;20032;-43
2023/11/13 08:26:46;;;;;;;9.02;7.47;;;8.50;99.90;;;;;;5058331;28;20020;-42
2023/11/13 08:29:15;;;;;;;9.18;7.13;;;8.50;99.90;;;;;;5078777;28;20822;-42
2023/11/13 08:31:44;;;;;;;8.13;6.85;;;8.50;99.90;;;;;;5069774;28;20028;-43
2023/11/13 08:34:10;;;;;;;6.57;5.50;;;8.60;99.90;;;;;;5079021;28;20028;-43
2023/11/13 08:36:35;;;;;;;6.78;5.65;;;8.60;99.90;;;;;;5068528;28;20705;-42
2023/11/13 08:39:01;;;;;;;6.75;5.88;;;8.60;99.90;;;;;;5060918;28;20478;-42
2023/11/13 08:41:32;;;;;;;6.28;5.53;;;8.60;99.90;;;;;;5072464;28;20761;-43
2023/11/13 08:43:59;;;;;;;7.78;5.30;;;8.70;99.90;;;;;;5060476;28;20044;-43
2023/11/13 08:46:25;;;;;;;5.90;5.30;;;8.70;99.90;;;;;;5073019;28;20028;-43
2023/11/13 08:48:51;;;;;;;5.95;5.32;;;8.70;99.90;;;;;;5073196;28;20090;-42
2023/11/13 08:51:16;;;;;;;6.07;4.68;;;8.80;99.90;;;;;;5078795;28;20559;-43
2023/11/13 08:53:46;;;;;;;7.50;4.95;;;8.80;99.90;;;;;;5081205;28;20678;-43
2023/11/13 08:56:15;;;;;;;5.00;4.50;;;8.80;99.90;;;;;;5079375;28;20024;-43
2023/11/13 08:58:42;;;;;;;6.22;4.10;;;8.90;99.90;;;;;;5080805;28;20020;-43
2023/11/13 09:01:08;;;;;;;4.63;4.03;;;9.00;99.90;;;;;;5080461;28;20020;-43
2023/11/13 09:03:34;;;;;;;4.90;4.13;;;9.00;99.90;;;;;;5079974;28;20637;-43
2023/11/13 09:06:04;;;;;;;4.57;3.97;;;9.10;99.90;;;;;;5079905;28;20020;-43
2023/11/13 09:08:31;;;;;;;4.78;3.63;;;9.10;99.90;;;;;;5080223;28;20032;-43
2023/11/13 09:10:56;;;;;;;3.90;3.50;;;9.20;99.90;;;;;;5080574;28;20020;-43
2023/11/13 09:13:24;;;;;;;4.20;3.60;;;9.30;99.90;;;;;;5080660;28;20031;-42
2023/11/13 09:15:49;;;;;;;4.20;3.63;;;9.40;99.90;;;;;;5082809;28;20024;-42
2023/11/13 09:18:17;;;;;;;3.35;3.05;;;9.50;99.90;;;;;;5083598;28;20685;-43
2023/11/13 09:20:43;;;;;;;5.65;3.50;;;9.50;99.90;;;;;;5083991;28;20781;-43
2023/11/13 09:23:09;;;;;;;4.03;3.10;;;9.60;99.90;;;;;;5080357;28;20584;-43
2023/11/13 09:25:35;;;;;;;4.68;3.22;;;9.70;99.90;;;;;;5083775;28;20379;-43
2023/11/13 09:28:00;;;;;;;4.68;3.20;;;9.80;99.90;;;;;;5083701;28;20119;-43
2023/11/13 09:30:26;;;;;;;4.10;3.08;;;9.90;99.90;;;;;;5083795;28;20543;-43
2023/11/13 09:32:53;;;;;;;3.28;2.97;;;9.90;99.90;;;;;;5082406;28;20032;-43
2023/11/13 09:35:26;;;;;;;5.55;3.00;;;9.90;99.90;;;;;;5063668;28;20025;-43
2023/11/13 09:37:53;;;;;;;6.93;3.72;;;10.00;99.90;;;;;;5077734;28;20020;-43
2023/11/13 09:40:23;;;;;;;5.00;3.10;;;10.00;99.90;;;;;;5083477;28;20039;-43
2023/11/13 09:42:50;;;;;;;5.88;3.00;;;10.10;99.90;;;;;;5081900;28;20075;-43
2023/11/13 09:45:16;;;;;;;4.30;2.58;;;10.10;99.90;;;;;;5082526;28;20020;-43
2023/11/13 09:47:45;;;;;;;3.03;2.47;;;10.20;99.90;;;;;;5083832;28;20056;-43
2023/11/13 09:50:16;;;;;;;3.08;2.17;;;10.20;99.90;;;;;;5067516;28;20717;-43
2023/11/13 09:52:50;;;;;;;3.75;2.42;;;10.30;99.90;;;;;;5068305;28;20050;-43
2023/11/13 09:55:23;;;;;;;3.50;2.03;;;10.30;99.90;;;;;;5069001;28;20034;-42
2023/11/13 09:57:53;;;;;;;2.10;1.60;;;10.40;99.90;;;;;;5067797;28;20024;-44
2023/11/13 10:00:24;;;;;;;2.15;1.70;;;10.40;99.90;;;;;;5069497;28;20025;-42
2023/11/13 10:02:53;;;;;;;3.92;1.95;;;10.50;99.90;;;;;;5066578;28;20060;-43
2023/11/13 10:05:27;;;;;;;3.50;2.10;;;10.50;99.90;;;;;;5070959;28;20060;-47
2023/11/13 10:07:53;;;;;;;3.08;1.40;;;10.50;99.90;;;;;;5065840;28;20016;-44
2023/11/13 10:10:23;;;;;;;4.68;2.17;;;10.50;99.90;;;;;;5072539;28;20070;-43
2023/11/13 10:12:51;;;;;;;2.03;1.30;;;10.60;99.90;;;;;;5064063;28;20026;-43
2023/11/13 10:15:28;;;;;;;2.20;1.30;;;10.60;99.90;;;;;;5073614;28;20862;-43
2023/11/13 10:17:59;;;;;;;3.53;1.50;;;10.60;99.90;;;;;;5064215;28;20020;-43
2023/11/13 10:20:26;;;;;;;2.55;1.45;;;10.60;99.90;;;;;;5073733;28;20103;-44
2023/11/13 10:23:14;;;;;;;2.67;1.45;;;10.70;99.90;;;;;;5063615;28;20086;-43
2023/11/13 10:25:50;;;;;;;2.00;1.38;;;10.70;99.90;;;;;;5074338;28;20021;-43
2023/11/13 10:28:19;;;;;;;2.42;1.52;;;10.70;99.90;;;;;;5063513;28;20143;-43
2023/11/13 10:30:55;;;;;;;2.55;1.20;;;10.70;99.90;;;;;;5074443;28;20021;-43
2023/11/13 10:33:24;;;;;;;2.33;1.27;;;10.60;99.90;;;;;;5063335;28;20024;-43
2023/11/13 10:35:54;;;;;;;2.45;1.17;;;10.70;99.90;;;;;;5074444;28;20024;-43
2023/11/13 10:38:21;;;;;;;1.73;1.08;;;10.70;99.90;;;;;;5063131;28;20029;-44
2023/11/13 10:40:58;;;;;;;1.85;1.10;;;10.70;99.90;;;;;;5072877;28;20013;-43
2023/11/13 10:43:39;;;;;;;1.67;0.95;;;10.70;99.90;;;;;;5062916;28;20071;-44
2023/11/13 10:46:09;;;;;;;1.23;0.70;;;10.70;99.90;;;;;;5070901;28;20128;-43
2023/11/13 10:48:49;;;;;;;2.15;1.25;;;10.80;99.90;;;;;;5072179;28;20040;-43
2023/11/13 10:51:16;;;;;;;2.78;0.95;;;10.80;99.90;;;;;;5080215;28;20024;-43
2023/11/13 10:53:46;;;;;;;0.82;0.70;;;10.80;99.90;;;;;;5082767;28;20402;-43
2023/11/13 10:56:15;;;;;;;1.25;0.70;;;10.80;99.90;;;;;;5081955;28;20030;-43
2023/11/13 10:58:42;;;;;;;2.30;1.10;;;10.80;99.90;;;;;;5083278;28;20016;-43
2023/11/13 11:01:13;;;;;;;1.00;0.75;;;10.90;99.90;;;;;;5082505;28;20498;-43
2023/11/13 11:03:46;;;;;;;2.20;1.35;;;10.80;99.90;;;;;;5082573;28;20109;-43
2023/11/13 11:06:16;;;;;;;1.02;0.70;;;10.90;99.90;;;;;;5081961;28;20024;-43
2023/11/13 11:08:44;;;;;;;0.75;0.55;;;10.80;99.90;;;;;;5081491;28;20498;-43
2023/11/13 11:11:12;;;;;;;1.05;0.63;;;10.80;99.90;;;;;;5081787;28;20101;-43
2023/11/13 11:13:42;;;;;;;1.02;0.70;;;10.80;99.90;;;;;;5082680;28;20024;-44
2023/11/13 11:16:45;;;;;;;0.80;0.60;;;10.80;99.90;;;;;;5080512;28;20040;-43
2023/11/13 11:19:32;;;;;;;1.50;0.63;;;10.80;99.90;;;;;;5062659;28;20033;-42
2023/11/13 11:22:10;;;;;;;0.95;0.65;;;10.80;99.90;;;;;;5080284;28;20145;-43
2023/11/13 11:24:38;;;;;;;0.45;0.45;;;10.80;99.90;;;;;;5080631;28;20442;-43
2023/11/13 11:27:04;;;;;;;1.02;0.60;;;10.80;99.90;;;;;;5080883;28;20758;-42
2023/11/13 11:29:37;;;;;;;0.70;0.60;;;10.90;99.90;;;;;;5080545;28;20030;-42
2023/11/13 11:32:19;;;;;;;1.10;0.50;;;10.80;99.90;;;;;;5080751;28;20020;-43
2023/11/13 11:34:58;;;;;;;0.60;0.60;;;10.90;99.90;;;;;;5081663;28;20031;-44
2023/11/13 11:37:23;;;;;;;0.43;0.43;;;10.90;99.90;;;;;;5080008;28;20012;-44
2023/11/13 11:39:55;;;;;;;1.27;0.77;;;10.90;99.90;;;;;;5082230;28;20027;-42
2023/11/13 11:42:23;;;;;;;0.68;0.68;;;10.90;99.90;;;;;;5081066;28;20031;-44
2023/11/13 11:45:06;;;;;;;0.93;0.60;;;10.90;99.90;;;;;;5080188;28;20473;-43
2023/11/13 11:47:36;;;;;;;1.42;1.10;;;11.00;99.90;;;;;;5079320;28;20084;-43
2023/11/13 11:50:14;;;;;;;1.25;1.00;;;11.00;99.90;;;;;;5060923;28;20037;-43
2023/11/13 11:52:41;;;;;;;1.25;0.68;;;11.00;99.90;;;;;;5071394;28;20499;-43
2023/11/13 11:55:12;;;;;;;1.92;0.98;;;11.00;99.90;;;;;;5061122;28;20033;-43
2023/11/13 11:57:41;;;;;;;1.60;1.10;;;11.10;99.90;;;;;;5073342;28;20028;-43
2023/11/13 12:00:08;;;;;;;1.05;0.90;;;11.10;99.90;;;;;;5040448;28;20441;-43
2023/11/13 12:02:34;;;;;;;3.03;1.25;;;11.20;99.90;;;;;;5064735;28;20024;-43
2023/11/13 12:05:00;;;;;;;1.67;1.10;;;11.20;99.90;;;;;;5062759;28;20029;-43
2023/11/13 12:07:25;;;;;;;2.38;1.20;;;11.30;99.90;;;;;;5068093;28;20008;-43
2023/11/13 12:09:53;;;;;;;2.80;1.40;;;11.30;99.90;;;;;;5065873;28;20044;-43
2023/11/13 12:12:22;;;;;;;3.42;1.48;;;11.40;99.90;;;;;;5065124;28;20426;-43
2023/11/13 12:14:47;;;;;;;3.97;1.77;;;11.40;99.90;;;;;;5067872;28;20032;-45
2023/11/13 12:17:13;;;;;;;4.15;1.73;;;11.50;99.90;;;;;;5063747;28;20438;-43
2023/11/13 12:19:39;;;;;;;3.60;2.10;;;11.50;99.90;;;;;;5069813;28;20064;-43
2023/11/13 12:22:05;;;;;;;4.03;1.90;;;11.60;99.90;;;;;;5060690;28;20031;-43
2023/11/13 12:24:35;;;;;;;3.55;1.92;;;11.60;99.90;;;;;;5070163;28;20028;-43
2023/11/13 12:27:01;;;;;;;4.13;1.65;;;11.70;99.90;;;;;;5059514;28;20107;-44
2023/11/13 12:29:26;;;;;;;5.38;1.90;;;11.70;99.90;;;;;;5070675;28;20449;-44
2023/11/13 12:31:54;;;;;;;3.97;2.05;;;11.80;99.90;;;;;;5059644;28;20028;-43
2023/11/13 12:34:19;;;;;;;2.92;1.67;;;11.80;99.90;;;;;;5070388;28;20050;-43
2023/11/13 12:36:47;;;;;;;5.57;1.98;;;11.90;99.90;;;;;;5059703;28;20032;-44
2023/11/13 12:39:19;;;;;;;3.40;2.10;;;12.00;99.90;;;;;;5072667;28;20515;-43
2023/11/13 12:41:51;;;;;;;6.10;2.13;;;12.00;99.90;;;;;;5059821;28;20044;-43
2023/11/13 12:44:17;;;;;;;5.57;2.35;;;12.10;99.90;;;;;;5072733;28;20069;-43
2023/11/13 12:46:47;;;;;;;4.28;2.10;;;12.20;99.90;;;;;;5060867;28;20821;-43
2023/11/13 12:49:16;;;;;;;4.53;2.13;;;12.20;99.90;;;;;;5071000;28;20040;-43
2023/11/13 12:51:51;;;;;;;4.13;2.22;;;12.30;99.90;;;;;;5065799;28;20028;-43
2023/11/13 12:54:17;;;;;;;3.33;2.00;;;12.40;99.90;;;;;;5073957;28;20020;-43